Time;durP1;ratioP1;P1;durP2;ratioP2;P2;SDS_P1;SDS_P2;PMS_P1;PMS_P2;Temp;Humidity;BMP_temperature;BMP_pressure;BME280_temperature;BME280_humidity;BME280_pressure;Samples;Min_cycle;Max_cycle;Signal;HPM_P1;HPM_P2
2020/12/16 00:00:59;;;;;;;121.75;49.08;;;-1.00;99.90;;;;;;5071996;28;20394;-84
2020/12/16 00:03:25;;;;;;;126.65;46.75;;;-1.00;99.90;;;;;;5071907;28;20115;-84
2020/12/16 00:05:51;;;;;;;115.25;46.05;;;-1.00;99.90;;;;;;5073871;28;20028;-85
2020/12/16 00:08:17;;;;;;;117.10;46.03;;;-0.90;99.90;;;;;;5073053;28;20028;-84
2020/12/16 00:10:42;;;;;;;111.07;46.17;;;-0.90;99.90;;;;;;5073092;28;20112;-85
2020/12/16 00:13:10;;;;;;;106.38;46.22;;;-0.90;99.90;;;;;;5073014;28;20107;-85
2020/12/16 00:15:39;;;;;;;117.55;45.58;;;-0.80;99.90;;;;;;5071424;28;20025;-86
2020/12/16 00:18:05;;;;;;;117.78;50.78;;;-0.80;99.90;;;;;;5072895;28;20055;-85
2020/12/16 00:20:31;;;;;;;123.65;48.35;;;-0.80;99.90;;;;;;5071856;28;20502;-85
2020/12/16 00:22:58;;;;;;;120.55;46.78;;;-0.80;99.90;;;;;;5070860;28;20048;-85
2020/12/16 00:25:23;;;;;;;113.03;45.90;;;-0.80;99.90;;;;;;5055566;28;20379;-85
2020/12/16 00:27:49;;;;;;;111.00;48.35;;;-0.70;99.90;;;;;;5072549;28;20028;-85
2020/12/16 00:30:15;;;;;;;124.38;46.20;;;-0.70;99.90;;;;;;5072706;28;20017;-85
2020/12/16 00:32:41;;;;;;;122.72;48.65;;;-0.70;99.90;;;;;;5072554;28;20020;-85
2020/12/16 00:35:08;;;;;;;108.53;46.00;;;-0.60;99.90;;;;;;5074965;28;20101;-86
2020/12/16 00:37:42;;;;;;;112.97;43.15;;;-0.60;99.90;;;;;;5072064;28;20029;-86
2020/12/16 00:40:09;;;;;;;108.88;43.42;;;-0.60;99.90;;;;;;5054452;28;20025;-85
2020/12/16 00:42:35;;;;;;;109.20;42.80;;;-0.60;99.90;;;;;;5071629;28;20474;-85
2020/12/16 00:45:02;;;;;;;110.97;43.75;;;-0.60;99.90;;;;;;5072705;28;20493;-85
2020/12/16 00:47:35;;;;;;;119.30;45.40;;;-0.50;99.90;;;;;;5070907;28;20012;-86
2020/12/16 00:50:01;;;;;;;97.88;41.28;;;-0.50;99.90;;;;;;5072412;28;20056;-85
2020/12/16 00:52:28;;;;;;;110.25;41.80;;;-0.50;99.90;;;;;;5056189;28;20123;-85
2020/12/16 00:54:54;;;;;;;107.80;44.00;;;-0.50;99.90;;;;;;5071326;28;20016;-85
2020/12/16 00:57:25;;;;;;;99.80;41.45;;;-0.50;99.90;;;;;;5072445;28;20099;-85
2020/12/16 00:59:50;;;;;;;97.10;41.08;;;-0.40;99.90;;;;;;5072590;28;20113;-86
2020/12/16 01:02:16;;;;;;;101.88;42.55;;;-0.40;99.90;;;;;;5072412;28;20013;-84
2020/12/16 01:04:44;;;;;;;101.75;45.42;;;-0.40;99.90;;;;;;5071934;28;20033;-85
2020/12/16 01:07:10;;;;;;;100.35;44.72;;;-0.40;99.90;;;;;;5072424;28;20082;-84
2020/12/16 01:09:36;;;;;;;103.68;41.17;;;-0.40;99.90;;;;;;5073095;28;20013;-85
2020/12/16 01:12:02;;;;;;;102.28;43.10;;;-0.40;99.90;;;;;;5072858;28;20444;-85
2020/12/16 01:14:28;;;;;;;88.35;40.47;;;-0.40;99.90;;;;;;5072733;28;20074;-85
2020/12/16 01:16:53;;;;;;;102.05;42.00;;;-0.40;99.90;;;;;;5072288;28;20024;-87
2020/12/16 01:19:19;;;;;;;101.47;41.17;;;-0.30;99.90;;;;;;5071995;28;20033;-85
2020/12/16 01:21:45;;;;;;;107.07;41.13;;;-0.30;99.90;;;;;;5054267;28;20513;-85
2020/12/16 01:24:10;;;;;;;92.90;39.90;;;-0.30;99.90;;;;;;5051829;28;20025;-84
2020/12/16 01:26:40;;;;;;;98.88;40.75;;;-0.30;99.90;;;;;;5052002;28;20025;-85
2020/12/16 01:29:06;;;;;;;100.85;41.33;;;-0.30;99.90;;;;;;5052283;28;20462;-85
2020/12/16 01:31:39;;;;;;;92.10;39.60;;;-0.30;99.90;;;;;;5051924;28;20100;-86
2020/12/16 01:34:05;;;;;;;97.00;40.75;;;-0.30;99.90;;;;;;5051142;28;20529;-86
2020/12/16 01:36:31;;;;;;;93.82;41.53;;;-0.30;99.90;;;;;;5048076;28;20028;-84
2020/12/16 01:38:57;;;;;;;95.25;40.75;;;-0.30;99.90;;;;;;5071386;28;20037;-85
2020/12/16 01:41:24;;;;;;;115.10;44.03;;;-0.30;99.90;;;;;;5071623;28;20040;-87
2020/12/16 01:43:50;;;;;;;91.68;39.85;;;-0.30;99.90;;;;;;5072318;28;20124;-86
2020/12/16 01:46:17;;;;;;;98.38;38.92;;;-0.30;99.90;;;;;;5056685;28;20056;-85
2020/12/16 01:48:42;;;;;;;101.63;40.50;;;-0.30;99.90;;;;;;5072202;28;20127;-85
2020/12/16 01:51:18;;;;;;;94.18;40.10;;;-0.30;99.90;;;;;;5049598;28;20108;-85
2020/12/16 01:53:45;;;;;;;103.63;41.95;;;-0.30;99.90;;;;;;5067342;28;20037;-85
2020/12/16 01:56:12;;;;;;;98.55;43.38;;;-0.30;99.90;;;;;;5055887;28;20452;-85
2020/12/16 01:58:42;;;;;;;100.22;40.47;;;-0.30;99.90;;;;;;5075238;28;20036;-85
2020/12/16 02:01:10;;;;;;;87.68;37.88;;;-0.30;99.90;;;;;;5073076;28;20033;-86
2020/12/16 02:03:38;;;;;;;86.47;40.60;;;-0.30;99.90;;;;;;5075280;28;20082;-84
2020/12/16 02:06:06;;;;;;;105.43;39.10;;;-0.30;99.90;;;;;;5075275;28;20013;-85
2020/12/16 02:08:36;;;;;;;86.00;39.45;;;-0.30;99.90;;;;;;5075273;28;20093;-85
2020/12/16 02:11:02;;;;;;;106.30;44.47;;;-0.30;99.90;;;;;;5074210;28;20436;-85
2020/12/16 02:13:28;;;;;;;90.47;38.33;;;-0.30;99.90;;;;;;5073831;28;20123;-86
2020/12/16 02:15:54;;;;;;;99.03;41.45;;;-0.40;99.90;;;;;;5069093;28;20028;-86
2020/12/16 02:18:20;;;;;;;105.10;42.40;;;-0.40;99.90;;;;;;5073262;28;20034;-85
2020/12/16 02:20:46;;;;;;;98.65;41.13;;;-0.30;99.90;;;;;;5090929;28;20482;-84
2020/12/16 02:23:18;;;;;;;94.25;41.65;;;-0.40;99.90;;;;;;5075033;28;20024;-85
2020/12/16 02:25:45;;;;;;;89.90;40.20;;;-0.40;99.90;;;;;;5075392;28;20454;-85
2020/12/16 02:28:10;;;;;;;90.70;40.75;;;-0.40;99.90;;;;;;5073873;28;20034;-84
2020/12/16 02:30:36;;;;;;;100.07;39.92;;;-0.40;99.90;;;;;;5073910;28;20020;-85
2020/12/16 02:33:02;;;;;;;106.22;43.30;;;-0.40;99.90;;;;;;5073791;28;20545;-85
2020/12/16 02:35:28;;;;;;;101.32;39.95;;;-0.40;99.90;;;;;;5078766;28;20038;-85
2020/12/16 02:37:53;;;;;;;92.18;39.60;;;-0.40;99.90;;;;;;5056584;28;20075;-85
2020/12/16 02:40:19;;;;;;;84.55;37.22;;;-0.40;99.90;;;;;;5074139;28;20075;-86
2020/12/16 02:42:45;;;;;;;86.63;33.95;;;-0.40;99.90;;;;;;5089961;28;20032;-86
2020/12/16 02:45:11;;;;;;;89.13;38.33;;;-0.40;99.90;;;;;;5075938;28;20043;-85
2020/12/16 02:47:36;;;;;;;89.45;36.17;;;-0.40;99.90;;;;;;5074445;28;20058;-85
2020/12/16 02:50:03;;;;;;;83.15;33.40;;;-0.40;99.90;;;;;;5071295;28;20111;-87
2020/12/16 02:52:29;;;;;;;91.82;36.17;;;-0.40;99.90;;;;;;5055342;28;20021;-87
2020/12/16 02:54:55;;;;;;;81.55;32.67;;;-0.40;99.90;;;;;;5077315;28;20024;-86
2020/12/16 02:57:21;;;;;;;79.38;32.10;;;-0.40;99.90;;;;;;5074666;28;20028;-87
2020/12/16 02:59:55;;;;;;;77.97;31.60;;;-0.40;99.90;;;;;;5056562;28;20474;-87
2020/12/16 03:02:21;;;;;;;68.10;29.42;;;-0.40;99.90;;;;;;5056916;28;20028;-87
2020/12/16 03:04:47;;;;;;;72.63;32.97;;;-0.40;99.90;;;;;;5074448;28;20024;-87
2020/12/16 03:07:13;;;;;;;92.50;36.60;;;-0.40;99.90;;;;;;5072688;28;20104;-87
2020/12/16 03:09:39;;;;;;;80.88;36.97;;;-0.40;99.90;;;;;;5056301;28;20166;-86
2020/12/16 03:12:04;;;;;;;83.43;35.67;;;-0.40;99.90;;;;;;5063364;28;20086;-87
2020/12/16 03:14:30;;;;;;;89.95;36.30;;;-0.40;99.90;;;;;;5072733;28;20028;-86
2020/12/16 03:16:56;;;;;;;117.88;44.70;;;-0.40;99.90;;;;;;5070823;28;20116;-87
2020/12/16 03:19:22;;;;;;;108.80;42.60;;;-0.40;99.90;;;;;;5073994;28;20036;-87
2020/12/16 03:21:47;;;;;;;109.78;42.13;;;-0.40;99.90;;;;;;5073658;28;20385;-86
2020/12/16 03:24:13;;;;;;;94.60;37.60;;;-0.50;99.90;;;;;;5074169;28;20097;-87
2020/12/16 03:26:42;;;;;;;88.13;36.45;;;-0.50;99.90;;;;;;5073985;28;20024;-87
2020/12/16 03:29:08;;;;;;;135.02;57.75;;;-0.50;99.90;;;;;;5063623;28;20086;-87
2020/12/16 03:31:33;;;;;;;131.73;55.33;;;-0.50;99.90;;;;;;5069415;28;20474;-87
2020/12/16 03:34:00;;;;;;;466.60;185.40;;;-0.50;99.90;;;;;;5036184;28;20057;-87
2020/12/16 03:36:25;;;;;;;242.82;99.13;;;-0.50;99.90;;;;;;5069137;28;20032;-87
2020/12/16 03:38:51;;;;;;;85.53;40.75;;;-0.50;99.90;;;;;;5068915;28;20407;-87
2020/12/16 03:41:17;;;;;;;84.65;35.03;;;-0.50;99.90;;;;;;5069891;28;20422;-87
2020/12/16 03:43:48;;;;;;;75.18;30.85;;;-0.50;99.90;;;;;;5067974;28;20028;-87
2020/12/16 03:46:14;;;;;;;69.25;27.38;;;-0.50;99.90;;;;;;5073635;28;20024;-87
2020/12/16 03:48:40;;;;;;;63.42;26.67;;;-0.50;99.90;;;;;;5055732;28;20024;-87
2020/12/16 03:51:08;;;;;;;58.22;24.50;;;-0.50;99.90;;;;;;5056330;28;20375;-88
2020/12/16 03:53:35;;;;;;;53.20;24.73;;;-0.50;99.90;;;;;;5055172;28;20500;-87
2020/12/16 03:56:08;;;;;;;56.72;24.35;;;-0.40;99.90;;;;;;5073196;28;20036;-85
2020/12/16 03:58:34;;;;;;;55.45;21.95;;;-0.40;99.90;;;;;;5073439;28;20048;-85
2020/12/16 04:01:09;;;;;;;52.75;21.65;;;-0.30;99.90;;;;;;5073839;28;20417;-85
2020/12/16 04:03:35;;;;;;;44.95;19.85;;;-0.30;99.90;;;;;;5073149;28;20020;-85
2020/12/16 04:06:06;;;;;;;98.53;35.17;;;-0.30;99.90;;;;;;5073361;28;20381;-85
2020/12/16 04:08:32;;;;;;;76.75;29.00;;;-0.20;99.90;;;;;;5055015;28;20025;-85
2020/12/16 04:10:58;;;;;;;47.28;20.27;;;-0.20;99.90;;;;;;5073008;28;20020;-86
2020/12/16 04:13:23;;;;;;;42.17;19.63;;;-0.20;99.90;;;;;;5069939;28;20500;-86
2020/12/16 04:15:49;;;;;;;38.95;18.80;;;-0.10;99.90;;;;;;5073410;28;20025;-86
2020/12/16 04:18:15;;;;;;;45.67;19.33;;;-0.10;99.90;;;;;;5072541;28;20032;-86
2020/12/16 04:20:41;;;;;;;48.80;21.23;;;0.00;99.90;;;;;;5064648;28;20082;-86
2020/12/16 04:23:07;;;;;;;45.58;19.35;;;0.00;99.90;;;;;;5054675;28;20024;-86
2020/12/16 04:25:33;;;;;;;47.40;19.48;;;0.00;99.90;;;;;;5072599;28;20028;-86
2020/12/16 04:27:59;;;;;;;36.78;17.25;;;0.20;99.90;;;;;;5072356;28;20035;-86
2020/12/16 04:30:26;;;;;;;37.47;18.40;;;0.20;99.90;;;;;;5064359;28;20017;-85
2020/12/16 04:32:56;;;;;;;36.38;18.92;;;0.30;99.90;;;;;;5071771;28;20077;-84
2020/12/16 04:35:29;;;;;;;40.88;19.17;;;0.30;99.90;;;;;;5072642;28;20020;-85
2020/12/16 04:37:55;;;;;;;30.83;16.27;;;0.40;99.90;;;;;;5105209;28;20021;-86
2020/12/16 04:40:22;;;;;;;31.08;16.65;;;0.40;99.90;;;;;;5075952;28;20521;-86
2020/12/16 04:43:20;;;;;;;31.58;15.27;;;0.40;99.90;;;;;;5070503;28;20029;-84
2020/12/16 04:45:47;;;;;;;31.13;16.05;;;0.50;99.90;;;;;;5025124;28;20041;-86
2020/12/16 04:48:14;;;;;;;33.53;15.10;;;0.50;99.90;;;;;;5052450;28;20107;-86
2020/12/16 04:50:42;;;;;;;36.58;16.15;;;0.50;99.90;;;;;;5052470;28;20029;-86
2020/12/16 04:53:10;;;;;;;39.28;16.27;;;0.50;99.90;;;;;;5052385;28;20490;-86
2020/12/16 04:55:36;;;;;;;31.95;15.68;;;0.50;99.90;;;;;;5034709;28;20013;-86
2020/12/16 04:58:03;;;;;;;29.15;15.60;;;0.50;99.90;;;;;;5091615;28;20385;-86
2020/12/16 05:00:30;;;;;;;28.42;14.32;;;0.50;99.90;;;;;;5072376;28;20027;-85
2020/12/16 05:03:02;;;;;;;37.47;16.13;;;0.60;99.90;;;;;;5071601;28;20109;-85
2020/12/16 05:05:28;;;;;;;32.80;15.68;;;0.50;99.90;;;;;;5073620;28;20039;-86
2020/12/16 05:07:54;;;;;;;29.95;14.43;;;0.50;99.90;;;;;;5072192;28;20024;-86
2020/12/16 05:10:34;;;;;;;35.20;15.68;;;0.60;99.90;;;;;;5062207;28;20442;-87
2020/12/16 05:13:05;;;;;;;31.67;15.88;;;0.60;99.90;;;;;;5065097;28;20029;-87
2020/12/16 05:15:31;;;;;;;32.70;15.25;;;0.60;99.90;;;;;;5054302;28;20040;-86
2020/12/16 05:18:10;;;;;;;29.50;14.50;;;0.60;99.90;;;;;;5058117;28;20017;-87
2020/12/16 05:20:37;;;;;;;34.78;14.85;;;0.60;99.90;;;;;;5053864;28;20106;-87
2020/12/16 05:23:04;;;;;;;27.35;14.45;;;0.60;99.90;;;;;;5073091;28;20044;-87
2020/12/16 05:25:31;;;;;;;35.13;15.05;;;0.60;99.90;;;;;;5071975;28;20056;-86
2020/12/16 05:27:57;;;;;;;31.58;15.55;;;0.50;99.90;;;;;;5072284;28;20385;-87
2020/12/16 05:30:23;;;;;;;27.83;15.23;;;0.50;99.90;;;;;;5073021;28;20021;-88
2020/12/16 05:32:49;;;;;;;28.35;13.73;;;0.40;99.90;;;;;;5078518;28;20421;-87
2020/12/16 05:35:31;;;;;;;30.55;15.35;;;0.40;99.90;;;;;;5074465;28;20020;-87
2020/12/16 05:38:07;;;;;;;35.80;15.93;;;0.40;99.90;;;;;;5058098;28;20028;-87
2020/12/16 05:40:35;;;;;;;27.73;13.90;;;0.40;99.90;;;;;;5076060;28;20027;-87
2020/12/16 05:43:02;;;;;;;38.63;15.45;;;0.40;99.90;;;;;;5075888;28;20078;-87
2020/12/16 05:45:29;;;;;;;33.42;14.13;;;0.40;99.90;;;;;;5062891;28;20020;-85
2020/12/16 05:48:08;;;;;;;36.55;14.35;;;0.40;99.90;;;;;;5074827;28;20025;-87
2020/12/16 05:50:51;;;;;;;27.23;13.43;;;0.40;99.90;;;;;;5075983;28;20025;-87
2020/12/16 05:53:20;;;;;;;;;;;0.40;99.90;;;;;;5076090;28;20021;-86
2020/12/16 05:55:58;;;;;;;20.67;12.20;;;0.40;99.90;;;;;;5057448;28;19999;-86
2020/12/16 05:58:25;;;;;;;26.13;11.98;;;0.40;99.90;;;;;;5075288;28;20040;-86
2020/12/16 06:00:54;;;;;;;26.77;11.15;;;0.40;99.90;;;;;;5075711;28;20012;-86
2020/12/16 06:03:24;;;;;;;29.45;11.52;;;0.40;99.90;;;;;;5075454;28;20028;-87
2020/12/16 06:06:02;;;;;;;22.45;10.73;;;0.40;99.90;;;;;;5058425;28;20028;-87
2020/12/16 06:08:32;;;;;;;20.33;11.38;;;0.40;99.90;;;;;;5056171;28;20052;-86
2020/12/16 06:10:58;;;;;;;26.23;11.73;;;0.40;99.90;;;;;;5057463;28;20021;-88
2020/12/16 06:13:24;;;;;;;21.15;10.43;;;0.40;99.90;;;;;;5073423;28;20025;-88
2020/12/16 06:16:01;;;;;;;43.15;18.17;;;0.40;99.90;;;;;;5055961;28;20024;-89
2020/12/16 06:18:32;;;;;;;27.17;11.52;;;0.40;99.90;;;;;;5053782;28;20155;-86
2020/12/16 06:20:59;;;;;;;21.55;10.75;;;0.40;99.90;;;;;;5074114;28;20078;-87
2020/12/16 06:23:36;;;;;;;22.95;10.35;;;0.30;99.90;;;;;;5055960;28;20031;-86
2020/12/16 06:26:04;;;;;;;24.90;10.82;;;0.30;99.90;;;;;;5075438;28;20382;-86
2020/12/16 06:28:31;;;;;;;21.05;10.95;;;0.30;99.90;;;;;;5074485;28;20028;-87
2020/12/16 06:31:20;;;;;;;23.10;11.40;;;0.30;99.90;;;;;;5078143;28;20169;-86
2020/12/16 06:34:06;;;;;;;21.70;12.20;;;0.30;99.90;;;;;;5073726;28;20024;-84
2020/12/16 06:36:34;;;;;;;21.85;11.63;;;0.30;99.90;;;;;;5056318;28;20025;-86
2020/12/16 06:39:00;;;;;;;33.20;14.52;;;0.40;99.90;;;;;;5036710;28;20059;-86
2020/12/16 06:41:32;;;;;;;30.15;13.10;;;0.30;99.90;;;;;;5063248;28;20032;-86
2020/12/16 06:44:11;;;;;;;26.63;12.82;;;0.30;99.90;;;;;;5074532;28;20425;-84
2020/12/16 06:46:41;;;;;;;19.10;10.75;;;0.40;99.90;;;;;;5053711;28;20030;-84
2020/12/16 06:49:27;;;;;;;24.50;11.32;;;0.30;99.90;;;;;;5073482;28;20505;-82
2020/12/16 06:52:03;;;;;;;24.13;12.30;;;0.30;99.90;;;;;;5073917;28;20047;-86
2020/12/16 06:54:41;;;;;;;28.85;12.48;;;0.30;99.90;;;;;;5074369;28;20021;-86
2020/12/16 06:57:17;;;;;;;30.65;14.48;;;0.30;99.90;;;;;;5056781;28;20020;-86
2020/12/16 06:59:48;;;;;;;26.45;12.98;;;0.30;99.90;;;;;;5074304;28;20043;-86
2020/12/16 07:02:21;;;;;;;38.60;14.60;;;0.30;99.90;;;;;;5063141;28;20056;-86
2020/12/16 07:04:47;;;;;;;;;;;0.30;99.90;;;;;;5066187;28;20024;-85
2020/12/16 07:07:42;;;;;;;76.15;37.50;;;0.30;99.90;;;;;;5072379;28;20320;-86
2020/12/16 07:10:34;;;;;;;45.75;24.90;;;0.30;99.90;;;;;;5073965;28;20028;-86
2020/12/16 07:13:24;;;;;;;44.58;19.13;;;0.30;99.90;;;;;;5058427;28;20047;-87
2020/12/16 07:15:52;;;;;;;55.50;23.73;;;0.30;99.90;;;;;;5051940;28;20482;-86
2020/12/16 07:18:47;;;;;;;33.15;16.15;;;0.30;99.90;;;;;;5054983;28;20033;-86
2020/12/16 07:21:16;;;;;;;46.42;20.27;;;0.30;99.90;;;;;;5035703;28;20052;-86
2020/12/16 07:23:57;;;;;;;36.00;16.83;;;0.30;99.90;;;;;;5052053;28;20532;-86
2020/12/16 07:26:28;;;;;;;41.85;19.35;;;0.30;99.90;;;;;;5035269;28;20090;-87
2020/12/16 07:28:56;;;;;;;45.25;20.52;;;0.30;99.90;;;;;;5053040;28;20489;-87
2020/12/16 07:31:22;;;;;;;54.45;22.08;;;0.40;99.90;;;;;;5035370;28;20029;-87
2020/12/16 07:33:48;;;;;;;40.42;20.27;;;0.40;99.90;;;;;;5035856;28;20425;-87
2020/12/16 07:36:19;;;;;;;42.03;19.55;;;0.40;99.90;;;;;;5053884;28;20035;-87
2020/12/16 07:38:53;;;;;;;48.03;20.05;;;0.50;99.90;;;;;;5053868;28;20175;-87
2020/12/16 07:41:29;;;;;;;41.53;18.45;;;0.50;99.90;;;;;;5054476;28;20025;-86
2020/12/16 07:44:01;;;;;;;36.60;18.25;;;0.60;99.90;;;;;;5053736;28;20382;-87
2020/12/16 07:46:27;;;;;;;43.30;18.37;;;0.60;99.90;;;;;;5054509;28;20493;-86
2020/12/16 07:48:53;;;;;;;42.58;18.88;;;0.60;99.90;;;;;;5053540;28;20027;-86
2020/12/16 07:51:19;;;;;;;34.67;16.10;;;0.60;99.90;;;;;;5053700;28;20096;-84
2020/12/16 07:53:50;;;;;;;40.35;18.27;;;0.60;99.90;;;;;;5052942;28;20021;-86
2020/12/16 07:56:17;;;;;;;34.95;16.23;;;0.60;99.90;;;;;;5053522;28;20025;-87
2020/12/16 07:58:43;;;;;;;23.67;13.05;;;0.60;99.90;;;;;;5053727;28;20033;-86
2020/12/16 08:01:18;;;;;;;23.50;11.68;;;0.60;99.90;;;;;;5053089;28;20025;-86
2020/12/16 08:03:44;;;;;;;25.17;13.27;;;0.70;99.90;;;;;;5035840;28;20025;-87
2020/12/16 08:06:13;;;;;;;22.63;11.40;;;0.70;99.90;;;;;;5018918;28;20120;-86
2020/12/16 08:08:43;;;;;;;30.35;12.95;;;0.70;99.90;;;;;;5054327;28;20029;-86
2020/12/16 08:11:16;;;;;;;21.17;11.90;;;0.80;99.90;;;;;;5035600;28;20112;-86
2020/12/16 08:13:41;;;;;;;26.05;13.35;;;0.80;99.90;;;;;;5053643;28;20098;-86
2020/12/16 08:16:08;;;;;;;34.65;14.65;;;0.90;99.90;;;;;;5035292;28;20021;-86
2020/12/16 08:18:38;;;;;;;31.00;13.95;;;0.90;99.90;;;;;;5053123;28;20475;-86
2020/12/16 08:21:16;;;;;;;37.55;18.65;;;0.90;99.90;;;;;;5053774;28;20051;-86
2020/12/16 08:23:41;;;;;;;36.08;16.00;;;1.00;99.90;;;;;;5035395;28;20112;-86
2020/12/16 08:26:07;;;;;;;33.67;14.50;;;1.00;99.90;;;;;;5053209;28;20535;-86
2020/12/16 08:28:33;;;;;;;36.38;17.42;;;1.10;99.90;;;;;;5052936;28;20028;-86
2020/12/16 08:31:01;;;;;;;41.05;18.70;;;1.10;99.90;;;;;;5053140;28;20020;-86
2020/12/16 08:33:28;;;;;;;38.28;18.27;;;1.20;99.90;;;;;;5052279;28;20074;-86
2020/12/16 08:36:01;;;;;;;39.03;18.65;;;1.20;99.90;;;;;;5052274;28;20013;-86
2020/12/16 08:38:38;;;;;;;33.28;16.17;;;1.30;99.90;;;;;;5052830;28;20505;-86
2020/12/16 08:41:07;;;;;;;42.60;18.58;;;1.30;99.90;;;;;;5052874;28;20112;-86
2020/12/16 08:43:42;;;;;;;42.03;18.15;;;1.40;99.90;;;;;;5034690;28;20060;-86
2020/12/16 08:46:07;;;;;;;39.05;17.33;;;1.40;99.90;;;;;;5052462;28;20078;-86
2020/12/16 08:48:47;;;;;;;32.83;15.98;;;1.40;99.90;;;;;;5034816;28;20374;-86
2020/12/16 08:51:30;;;;;;;37.15;17.30;;;1.40;99.90;;;;;;5034648;28;20529;-85
2020/12/16 08:54:01;;;;;;;35.55;17.10;;;1.50;99.90;;;;;;5034891;28;20044;-85
2020/12/16 08:56:44;;;;;;;36.05;15.85;;;1.60;99.90;;;;;;5034897;28;20048;-86
2020/12/16 08:59:16;;;;;;;;;;;1.60;99.90;;;;;;5052977;28;20060;-86
2020/12/16 09:01:45;;;;;;;36.50;16.58;;;1.60;99.90;;;;;;5034706;28;20320;-86
2020/12/16 09:04:21;;;;;;;32.03;15.88;;;1.50;99.90;;;;;;5035169;28;20014;-86
2020/12/16 09:07:01;;;;;;;33.88;17.13;;;1.60;99.90;;;;;;5034265;28;20508;-85
2020/12/16 09:09:27;;;;;;;42.75;17.75;;;1.60;99.90;;;;;;5052451;28;20013;-86
2020/12/16 09:11:53;;;;;;;40.30;17.17;;;1.60;99.90;;;;;;5034213;28;20432;-86
2020/12/16 09:14:20;;;;;;;36.50;16.08;;;1.60;99.90;;;;;;5052061;28;20124;-86
2020/12/16 09:16:46;;;;;;;36.38;17.42;;;1.60;99.90;;;;;;5052582;28;20017;-86
2020/12/16 09:19:22;;;;;;;36.08;17.67;;;1.60;99.90;;;;;;5052041;28;20115;-86
2020/12/16 09:21:50;;;;;;;41.90;17.40;;;1.70;99.90;;;;;;5052179;28;20048;-86
2020/12/16 09:24:21;;;;;;;36.10;16.90;;;1.80;99.90;;;;;;5057716;28;20490;-86
2020/12/16 09:26:48;;;;;;;32.95;16.80;;;1.80;99.90;;;;;;5083252;28;20385;-86
2020/12/16 09:29:18;;;;;;;33.47;15.57;;;1.90;99.90;;;;;;5072095;28;20052;-86
2020/12/16 09:31:45;;;;;;;32.20;15.13;;;2.00;99.90;;;;;;5071991;28;20025;-86
2020/12/16 09:34:11;;;;;;;32.17;14.27;;;2.10;99.90;;;;;;5071954;28;20067;-87
2020/12/16 09:36:37;;;;;;;35.85;14.85;;;2.20;99.90;;;;;;5071222;28;20028;-86
2020/12/16 09:39:05;;;;;;;23.70;12.77;;;2.30;99.90;;;;;;5072166;28;20033;-87
2020/12/16 09:41:45;;;;;;;28.08;12.63;;;2.30;99.90;;;;;;5070541;28;20025;-87
2020/12/16 09:44:30;;;;;;;25.77;12.82;;;2.40;99.90;;;;;;5072396;28;20081;-87
2020/12/16 09:47:19;;;;;;;28.27;13.10;;;2.40;99.90;;;;;;5071028;28;20021;-84
2020/12/16 09:49:56;;;;;;;27.77;12.73;;;2.50;99.90;;;;;;5073075;28;20429;-84
2020/12/16 09:52:26;;;;;;;25.58;14.00;;;2.50;99.90;;;;;;5072201;28;20052;-84
2020/12/16 09:54:52;;;;;;;25.10;13.02;;;2.60;99.90;;;;;;5072116;28;20018;-83
2020/12/16 09:57:20;;;;;;;27.05;13.75;;;2.60;99.90;;;;;;5071710;28;20031;-84
2020/12/16 09:59:47;;;;;;;26.23;12.23;;;2.60;99.90;;;;;;5072179;28;20170;-84
2020/12/16 10:02:14;;;;;;;28.40;11.68;;;2.60;99.90;;;;;;5070772;28;20020;-84
2020/12/16 10:04:43;;;;;;;27.45;12.85;;;2.60;99.90;;;;;;5071904;28;20027;-84
2020/12/16 10:07:09;;;;;;;22.90;11.25;;;2.70;99.90;;;;;;5071841;28;20017;-85
2020/12/16 10:09:35;;;;;;;26.13;12.55;;;2.70;99.90;;;;;;5072259;28;20032;-85
2020/12/16 10:12:03;;;;;;;26.75;13.02;;;2.70;99.90;;;;;;5072455;28;20048;-85
2020/12/16 10:14:29;;;;;;;28.63;13.45;;;2.70;99.90;;;;;;5072655;28;20040;-84
2020/12/16 10:16:56;;;;;;;24.90;12.55;;;2.70;99.90;;;;;;5071581;28;20474;-83
2020/12/16 10:19:22;;;;;;;21.50;11.85;;;2.70;99.90;;;;;;5075214;28;20036;-85
2020/12/16 10:21:48;;;;;;;26.33;13.90;;;2.80;99.90;;;;;;5075845;28;20027;-85
2020/12/16 10:24:16;;;;;;;34.72;12.80;;;2.80;99.90;;;;;;5076258;28;20031;-84
2020/12/16 10:26:47;;;;;;;29.83;14.73;;;2.80;99.90;;;;;;5075352;28;20028;-83
2020/12/16 10:29:16;;;;;;;27.38;13.38;;;2.90;99.90;;;;;;5075300;28;20074;-85
2020/12/16 10:31:48;;;;;;;24.48;11.95;;;2.90;99.90;;;;;;5075251;28;20048;-85
2020/12/16 10:34:14;;;;;;;27.60;14.27;;;3.00;99.90;;;;;;5075058;28;20016;-85
2020/12/16 10:36:40;;;;;;;31.25;14.63;;;3.00;99.90;;;;;;5076246;28;20032;-85
2020/12/16 10:39:06;;;;;;;28.33;15.07;;;3.00;99.90;;;;;;5075819;28;20032;-85
2020/12/16 10:41:31;;;;;;;29.92;14.32;;;3.10;99.90;;;;;;5074838;28;20028;-84
2020/12/16 10:43:57;;;;;;;30.80;14.20;;;3.10;99.90;;;;;;5074553;28;20497;-84
2020/12/16 10:46:23;;;;;;;27.45;14.27;;;3.10;99.90;;;;;;5075032;28;20029;-84
2020/12/16 10:48:48;;;;;;;28.08;13.80;;;3.10;99.90;;;;;;5074566;28;20067;-84
2020/12/16 10:51:14;;;;;;;29.95;14.90;;;3.20;99.90;;;;;;5075189;28;20028;-85
2020/12/16 10:53:40;;;;;;;40.45;17.50;;;3.20;99.90;;;;;;5075219;28;20421;-85
2020/12/16 10:56:06;;;;;;;30.50;15.30;;;3.20;99.90;;;;;;5073735;28;20021;-85
2020/12/16 10:58:31;;;;;;;27.63;13.02;;;3.30;99.90;;;;;;5075449;28;20493;-84
2020/12/16 11:00:57;;;;;;;38.80;18.70;;;3.30;99.90;;;;;;5075867;28;20086;-85
2020/12/16 11:03:23;;;;;;;28.77;14.30;;;3.30;99.90;;;;;;5074858;28;20029;-85
2020/12/16 11:05:49;;;;;;;29.98;13.90;;;3.30;99.90;;;;;;5074772;28;20025;-86
2020/12/16 11:08:14;;;;;;;23.67;11.65;;;3.30;99.90;;;;;;5073929;28;20024;-87
2020/12/16 11:10:40;;;;;;;51.33;20.45;;;3.20;99.90;;;;;;5074459;28;20070;-85
2020/12/16 11:13:06;;;;;;;28.00;12.38;;;3.20;99.90;;;;;;5074522;28;20493;-85
2020/12/16 11:15:32;;;;;;;29.17;12.35;;;3.20;99.90;;;;;;5073293;28;20063;-85
2020/12/16 11:17:58;;;;;;;20.83;11.60;;;3.20;99.90;;;;;;5074247;28;20027;-85
2020/12/16 11:20:24;;;;;;;27.50;13.70;;;3.20;99.90;;;;;;5072676;28;20027;-83
2020/12/16 11:22:50;;;;;;;39.80;18.63;;;3.10;99.90;;;;;;5074274;28;20016;-84
2020/12/16 11:25:16;;;;;;;27.58;13.40;;;3.10;99.90;;;;;;5074895;28;20090;-84
2020/12/16 11:27:41;;;;;;;34.40;13.80;;;3.10;99.90;;;;;;5072935;28;20059;-84
2020/12/16 11:30:07;;;;;;;32.08;15.55;;;3.10;99.90;;;;;;5073153;28;20024;-84
2020/12/16 11:32:33;;;;;;;29.60;15.77;;;3.20;99.90;;;;;;5074402;28;20470;-84
2020/12/16 11:34:58;;;;;;;23.80;12.25;;;3.20;99.90;;;;;;5074778;28;20074;-84
2020/12/16 11:37:24;;;;;;;25.23;11.32;;;3.30;99.90;;;;;;5072607;28;20024;-84
2020/12/16 11:39:54;;;;;;;29.17;11.95;;;3.30;99.90;;;;;;5074465;28;20033;-84
2020/12/16 11:42:19;;;;;;;27.08;13.02;;;3.30;99.90;;;;;;5073280;28;20089;-84
2020/12/16 11:44:45;;;;;;;23.52;11.65;;;3.30;99.90;;;;;;5073519;28;20425;-84
2020/12/16 11:47:11;;;;;;;27.65;14.20;;;3.40;99.90;;;;;;5073421;28;20111;-84
2020/12/16 11:49:36;;;;;;;29.98;14.32;;;3.40;99.90;;;;;;5074412;28;20043;-84
2020/12/16 11:52:02;;;;;;;29.83;13.27;;;3.40;99.90;;;;;;5073702;28;20044;-84
2020/12/16 11:54:28;;;;;;;31.10;17.42;;;3.40;99.90;;;;;;5074628;28;20020;-84
2020/12/16 11:56:55;;;;;;;28.00;17.08;;;3.40;99.90;;;;;;5074185;28;20021;-84
2020/12/16 11:59:21;;;;;;;38.08;16.45;;;3.30;99.90;;;;;;5071581;28;20512;-84
2020/12/16 12:01:46;;;;;;;36.42;18.83;;;3.30;99.90;;;;;;5073137;28;20025;-85
2020/12/16 12:04:12;;;;;;;35.88;19.55;;;3.30;99.90;;;;;;5073265;28;20108;-84
2020/12/16 12:06:38;;;;;;;41.10;22.30;;;3.30;99.90;;;;;;5073120;28;20059;-84
2020/12/16 12:09:04;;;;;;;28.33;12.88;;;3.30;99.90;;;;;;5073344;28;20024;-84
2020/12/16 12:11:32;;;;;;;34.17;18.73;;;3.30;99.90;;;;;;5073319;28;20021;-84
2020/12/16 12:13:58;;;;;;;22.80;12.73;;;3.30;99.90;;;;;;5073264;28;20414;-84
2020/12/16 12:16:24;;;;;;;25.95;13.32;;;3.30;99.90;;;;;;5073466;28;20162;-84
2020/12/16 12:18:50;;;;;;;26.63;12.18;;;3.30;99.90;;;;;;5072990;28;20112;-84
2020/12/16 12:21:17;;;;;;;31.02;12.43;;;3.30;99.90;;;;;;5073281;28;20100;-84
2020/12/16 12:23:42;;;;;;;27.45;12.15;;;3.30;99.90;;;;;;5072306;28;20123;-84
2020/12/16 12:26:08;;;;;;;63.95;27.65;;;3.20;99.90;;;;;;5073036;28;20100;-84
2020/12/16 12:28:34;;;;;;;67.53;31.67;;;3.20;99.90;;;;;;5071632;28;20031;-84
2020/12/16 12:30:59;;;;;;;48.65;23.55;;;3.30;99.90;;;;;;5072642;28;20093;-84
2020/12/16 12:33:25;;;;;;;29.20;14.35;;;3.30;99.90;;;;;;5071910;28;20074;-84
2020/12/16 12:35:51;;;;;;;31.27;13.90;;;3.30;99.90;;;;;;5071549;28;20028;-84
2020/12/16 12:38:17;;;;;;;62.53;27.25;;;3.20;99.90;;;;;;5071710;28;20021;-84
2020/12/16 12:40:44;;;;;;;26.77;12.40;;;3.20;99.90;;;;;;5106036;28;20358;-84